Terminal Aerodrome Forecast
Issued by NWS Binghamton, NY

Home | Current Version | Previous Version | Text Only | Print | Product List | Glossary On
Versions: 1 2 3 4 5 6 7 8 9 10 11 12 13 14 15 16 17 18 19 20 21
000
FTUS41 KBGM 030900 AAA
TAFAVP
TAF AMD
KAVP 030905Z 0309/0406 VRB03KT P6SM SKC
     FM031300 18005KT P6SM OVC120
     FM031800 20008KT 2SM -SN OVC015
     FM032100 21008KT 4SM -PL OVC015
     FM040100 22007KT 4SM -FZRA OVC015=

USA.gov is the U.S. government's official web portal to all federal, state and local government web resources and services.